sensor_id;sensor_type;location;lat;lon;timestamp;P1;durP1;ratioP1;P2;durP2;ratioP2
36715;SDS011;22699;51.034;3.730;2022-09-20T00:01:58;4.32;;;2.38;;
36715;SDS011;22699;51.034;3.730;2022-09-20T00:04:25;7.43;;;2.50;;
36715;SDS011;22699;51.034;3.730;2022-09-20T00:06:51;11.20;;;3.00;;
36715;SDS011;22699;51.034;3.730;2022-09-20T00:09:24;7.13;;;2.63;;
36715;SDS011;22699;51.034;3.730;2022-09-20T00:12:10;7.63;;;3.00;;
36715;SDS011;22699;51.034;3.730;2022-09-20T00:14:49;7.50;;;3.05;;
36715;SDS011;22699;51.034;3.730;2022-09-20T00:17:15;4.80;;;2.90;;
36715;SDS011;22699;51.034;3.730;2022-09-20T00:19:41;11.07;;;3.30;;
36715;SDS011;22699;51.034;3.730;2022-09-20T00:22:17;10.40;;;3.70;;
36715;SDS011;22699;51.034;3.730;2022-09-20T00:27:30;9.63;;;3.92;;
36715;SDS011;22699;51.034;3.730;2022-09-20T00:29:56;8.52;;;3.67;;
36715;SDS011;22699;51.034;3.730;2022-09-20T00:35:36;7.70;;;4.40;;
36715;SDS011;22699;51.034;3.730;2022-09-20T00:38:04;7.45;;;3.95;;
36715;SDS011;22699;51.034;3.730;2022-09-20T00:40:50;7.30;;;3.60;;
36715;SDS011;22699;51.034;3.730;2022-09-20T00:43:16;9.45;;;4.30;;
36715;SDS011;22699;51.034;3.730;2022-09-20T00:46:22;9.13;;;4.00;;
36715;SDS011;22699;51.034;3.730;2022-09-20T00:49:12;11.32;;;4.53;;
36715;SDS011;22699;51.034;3.730;2022-09-20T00:51:57;5.07;;;4.03;;
36715;SDS011;22699;51.034;3.730;2022-09-20T00:54:50;8.20;;;4.22;;
36715;SDS011;22699;51.034;3.730;2022-09-20T00:57:54;9.55;;;4.45;;
36715;SDS011;22699;51.034;3.730;2022-09-20T01:00:21;7.32;;;4.05;;
36715;SDS011;22699;51.034;3.730;2022-09-20T01:03:16;7.03;;;4.13;;
36715;SDS011;22699;51.034;3.730;2022-09-20T01:05:44;8.02;;;5.47;;
36715;SDS011;22699;51.034;3.730;2022-09-20T01:08:30;10.95;;;4.00;;
36715;SDS011;22699;51.034;3.730;2022-09-20T01:11:04;8.75;;;5.25;;
36715;SDS011;22699;51.034;3.730;2022-09-20T01:13:49;7.18;;;4.13;;
36715;SDS011;22699;51.034;3.730;2022-09-20T01:16:44;16.45;;;5.47;;
36715;SDS011;22699;51.034;3.730;2022-09-20T01:19:16;9.20;;;4.60;;
36715;SDS011;22699;51.034;3.730;2022-09-20T01:22:03;7.63;;;4.97;;
36715;SDS011;22699;51.034;3.730;2022-09-20T01:24:37;10.05;;;5.72;;
36715;SDS011;22699;51.034;3.730;2022-09-20T01:27:46;9.52;;;4.78;;
36715;SDS011;22699;51.034;3.730;2022-09-20T01:44:12;8.93;;;5.45;;
36715;SDS011;22699;51.034;3.730;2022-09-20T01:46:51;8.68;;;4.95;;
36715;SDS011;22699;51.034;3.730;2022-09-20T01:49:35;11.23;;;5.13;;
36715;SDS011;22699;51.034;3.730;2022-09-20T02:15:15;12.00;;;5.20;;
36715;SDS011;22699;51.034;3.730;2022-09-20T02:37:59;9.88;;;4.97;;
36715;SDS011;22699;51.034;3.730;2022-09-20T03:15:44;7.15;;;4.95;;
36715;SDS011;22699;51.034;3.730;2022-09-20T03:21:33;10.15;;;6.20;;
36715;SDS011;22699;51.034;3.730;2022-09-20T03:39:13;12.20;;;6.03;;
36715;SDS011;22699;51.034;3.730;2022-09-20T03:50:49;8.60;;;4.72;;
36715;SDS011;22699;51.034;3.730;2022-09-20T04:08:48;14.85;;;5.47;;
36715;SDS011;22699;51.034;3.730;2022-09-20T04:21:02;7.28;;;5.18;;
36715;SDS011;22699;51.034;3.730;2022-09-20T04:33:27;9.43;;;5.90;;
36715;SDS011;22699;51.034;3.730;2022-09-20T04:39:53;11.85;;;6.90;;
36715;SDS011;22699;51.034;3.730;2022-09-20T04:56:02;10.90;;;5.93;;
36715;SDS011;22699;51.034;3.730;2022-09-20T05:12:22;10.60;;;7.43;;
36715;SDS011;22699;51.034;3.730;2022-09-20T05:18:07;12.05;;;6.80;;
36715;SDS011;22699;51.034;3.730;2022-09-20T05:21:22;12.57;;;7.05;;
36715;SDS011;22699;51.034;3.730;2022-09-20T05:24:19;9.98;;;7.40;;
36715;SDS011;22699;51.034;3.730;2022-09-20T05:29:54;11.05;;;7.40;;
36715;SDS011;22699;51.034;3.730;2022-09-20T05:32:52;12.75;;;7.90;;
36715;SDS011;22699;51.034;3.730;2022-09-20T05:38:59;18.10;;;7.75;;
36715;SDS011;22699;51.034;3.730;2022-09-20T05:48:45;12.23;;;7.45;;
36715;SDS011;22699;51.034;3.730;2022-09-20T06:04:33;16.10;;;8.00;;
36715;SDS011;22699;51.034;3.730;2022-09-20T06:28:40;13.73;;;8.13;;
36715;SDS011;22699;51.034;3.730;2022-09-20T06:31:32;11.25;;;8.20;;
36715;SDS011;22699;51.034;3.730;2022-09-20T06:34:12;15.27;;;8.30;;
36715;SDS011;22699;51.034;3.730;2022-09-20T06:36:49;15.43;;;7.95;;
36715;SDS011;22699;51.034;3.730;2022-09-20T06:39:58;14.57;;;8.10;;
36715;SDS011;22699;51.034;3.730;2022-09-20T06:43:08;10.90;;;7.43;;
36715;SDS011;22699;51.034;3.730;2022-09-20T06:45:39;11.43;;;7.78;;
36715;SDS011;22699;51.034;3.730;2022-09-20T06:48:27;15.85;;;8.52;;
36715;SDS011;22699;51.034;3.730;2022-09-20T06:51:08;13.65;;;7.10;;
36715;SDS011;22699;51.034;3.730;2022-09-20T06:53:57;13.77;;;7.93;;
36715;SDS011;22699;51.034;3.730;2022-09-20T06:56:34;17.60;;;9.68;;
36715;SDS011;22699;51.034;3.730;2022-09-20T06:59:14;17.83;;;7.65;;
36715;SDS011;22699;51.034;3.730;2022-09-20T07:01:46;16.73;;;6.50;;
36715;SDS011;22699;51.034;3.730;2022-09-20T07:04:12;13.63;;;7.35;;
36715;SDS011;22699;51.034;3.730;2022-09-20T07:06:43;14.23;;;6.70;;
36715;SDS011;22699;51.034;3.730;2022-09-20T07:09:12;16.42;;;6.18;;
36715;SDS011;22699;51.034;3.730;2022-09-20T07:11:38;19.60;;;6.38;;
36715;SDS011;22699;51.034;3.730;2022-09-20T07:14:04;9.48;;;5.60;;
36715;SDS011;22699;51.034;3.730;2022-09-20T07:16:32;10.88;;;5.03;;
36715;SDS011;22699;51.034;3.730;2022-09-20T07:19:14;8.10;;;5.05;;
36715;SDS011;22699;51.034;3.730;2022-09-20T07:21:47;10.82;;;4.70;;
36715;SDS011;22699;51.034;3.730;2022-09-20T07:24:16;10.05;;;5.22;;
36715;SDS011;22699;51.034;3.730;2022-09-20T07:27:02;13.07;;;4.90;;
36715;SDS011;22699;51.034;3.730;2022-09-20T07:29:39;5.82;;;4.35;;
36715;SDS011;22699;51.034;3.730;2022-09-20T07:32:21;7.93;;;4.07;;
36715;SDS011;22699;51.034;3.730;2022-09-20T07:35:03;8.90;;;4.15;;
36715;SDS011;22699;51.034;3.730;2022-09-20T07:37:35;10.88;;;4.88;;
36715;SDS011;22699;51.034;3.730;2022-09-20T07:42:44;12.07;;;5.57;;
36715;SDS011;22699;51.034;3.730;2022-09-20T07:45:14;10.00;;;4.10;;
36715;SDS011;22699;51.034;3.730;2022-09-20T07:47:42;10.05;;;4.05;;
36715;SDS011;22699;51.034;3.730;2022-09-20T07:50:11;8.65;;;3.78;;
36715;SDS011;22699;51.034;3.730;2022-09-20T07:58:06;4.05;;;2.72;;
36715;SDS011;22699;51.034;3.730;2022-09-20T08:00:33;6.78;;;2.50;;
36715;SDS011;22699;51.034;3.730;2022-09-20T08:03:01;3.97;;;2.20;;
36715;SDS011;22699;51.034;3.730;2022-09-20T08:05:43;4.97;;;1.90;;
36715;SDS011;22699;51.034;3.730;2022-09-20T08:08:12;3.55;;;1.40;;
36715;SDS011;22699;51.034;3.730;2022-09-20T08:10:45;3.53;;;1.10;;
36715;SDS011;22699;51.034;3.730;2022-09-20T08:13:27;8.48;;;1.50;;
36715;SDS011;22699;51.034;3.730;2022-09-20T08:16:05;3.53;;;1.17;;
36715;SDS011;22699;51.034;3.730;2022-09-20T08:18:49;7.30;;;1.48;;
36715;SDS011;22699;51.034;3.730;2022-09-20T08:21:33;5.20;;;1.80;;
36715;SDS011;22699;51.034;3.730;2022-09-20T08:24:02;7.30;;;1.10;;
36715;SDS011;22699;51.034;3.730;2022-09-20T08:26:28;3.33;;;1.00;;
36715;SDS011;22699;51.034;3.730;2022-09-20T08:29:14;7.60;;;1.23;;
36715;SDS011;22699;51.034;3.730;2022-09-20T08:31:40;3.97;;;1.27;;
36715;SDS011;22699;51.034;3.730;2022-09-20T08:34:08;4.85;;;1.00;;
36715;SDS011;22699;51.034;3.730;2022-09-20T08:36:38;5.80;;;1.52;;
36715;SDS011;22699;51.034;3.730;2022-09-20T08:39:06;5.32;;;1.52;;
36715;SDS011;22699;51.034;3.730;2022-09-20T08:41:37;4.90;;;1.63;;
36715;SDS011;22699;51.034;3.730;2022-09-20T08:45:13;4.97;;;1.40;;
36715;SDS011;22699;51.034;3.730;2022-09-20T08:47:56;5.40;;;1.20;;
36715;SDS011;22699;51.034;3.730;2022-09-20T08:50:26;7.75;;;1.40;;
36715;SDS011;22699;51.034;3.730;2022-09-20T08:52:53;3.55;;;1.08;;
36715;SDS011;22699;51.034;3.730;2022-09-20T08:55:41;4.95;;;1.50;;
36715;SDS011;22699;51.034;3.730;2022-09-20T08:58:09;4.50;;;1.05;;
36715;SDS011;22699;51.034;3.730;2022-09-20T09:01:02;3.47;;;1.13;;
36715;SDS011;22699;51.034;3.730;2022-09-20T09:03:35;4.43;;;0.77;;
36715;SDS011;22699;51.034;3.730;2022-09-20T09:06:03;2.72;;;0.70;;
36715;SDS011;22699;51.034;3.730;2022-09-20T09:08:32;6.97;;;1.23;;
36715;SDS011;22699;51.034;3.730;2022-09-20T09:11:19;2.37;;;0.90;;
36715;SDS011;22699;51.034;3.730;2022-09-20T09:13:56;6.57;;;1.65;;
36715;SDS011;22699;51.034;3.730;2022-09-20T09:16:50;5.43;;;1.02;;
36715;SDS011;22699;51.034;3.730;2022-09-20T09:21:59;7.50;;;1.48;;
36715;SDS011;22699;51.034;3.730;2022-09-20T09:24:27;6.00;;;1.40;;
36715;SDS011;22699;51.034;3.730;2022-09-20T09:27:14;4.88;;;1.38;;
36715;SDS011;22699;51.034;3.730;2022-09-20T09:29:51;6.10;;;1.50;;
36715;SDS011;22699;51.034;3.730;2022-09-20T09:32:19;3.28;;;0.80;;
36715;SDS011;22699;51.034;3.730;2022-09-20T09:34:47;5.05;;;1.17;;
36715;SDS011;22699;51.034;3.730;2022-09-20T09:37:26;2.72;;;0.85;;
36715;SDS011;22699;51.034;3.730;2022-09-20T09:42:53;2.92;;;1.10;;
36715;SDS011;22699;51.034;3.730;2022-09-20T09:45:33;3.28;;;1.52;;
36715;SDS011;22699;51.034;3.730;2022-09-20T09:48:17;2.17;;;0.90;;
36715;SDS011;22699;51.034;3.730;2022-09-20T09:51:10;4.40;;;0.93;;
36715;SDS011;22699;51.034;3.730;2022-09-20T09:53:44;2.95;;;0.90;;
36715;SDS011;22699;51.034;3.730;2022-09-20T10:05:13;4.75;;;1.48;;
36715;SDS011;22699;51.034;3.730;2022-09-20T10:14:01;3.13;;;0.55;;
36715;SDS011;22699;51.034;3.730;2022-09-20T10:17:24;4.47;;;1.10;;
36715;SDS011;22699;51.034;3.730;2022-09-20T10:37:28;7.65;;;2.28;;
36715;SDS011;22699;51.034;3.730;2022-09-20T10:40:20;14.35;;;2.47;;
36715;SDS011;22699;51.034;3.730;2022-09-20T10:49:16;8.27;;;3.60;;
36715;SDS011;22699;51.034;3.730;2022-09-20T11:08:49;4.07;;;1.70;;
36715;SDS011;22699;51.034;3.730;2022-09-20T11:11:24;6.13;;;1.30;;
36715;SDS011;22699;51.034;3.730;2022-09-20T11:14:17;2.92;;;1.08;;
36715;SDS011;22699;51.034;3.730;2022-09-20T11:22:21;3.75;;;1.17;;
36715;SDS011;22699;51.034;3.730;2022-09-20T11:27:55;4.63;;;1.00;;
36715;SDS011;22699;51.034;3.730;2022-09-20T11:31:02;0.95;;;0.30;;
36715;SDS011;22699;51.034;3.730;2022-09-20T11:33:31;1.20;;;0.50;;
36715;SDS011;22699;51.034;3.730;2022-09-20T11:36:07;4.90;;;0.50;;
36715;SDS011;22699;51.034;3.730;2022-09-20T11:38:45;1.45;;;0.55;;
36715;SDS011;22699;51.034;3.730;2022-09-20T11:41:19;1.92;;;0.75;;
36715;SDS011;22699;51.034;3.730;2022-09-20T11:43:50;2.88;;;0.52;;
36715;SDS011;22699;51.034;3.730;2022-09-20T11:46:23;6.22;;;0.80;;
36715;SDS011;22699;51.034;3.730;2022-09-20T11:54:14;3.40;;;0.60;;
36715;SDS011;22699;51.034;3.730;2022-09-20T11:57:04;8.52;;;1.60;;
36715;SDS011;22699;51.034;3.730;2022-09-20T12:08:25;3.20;;;0.50;;
36715;SDS011;22699;51.034;3.730;2022-09-20T12:26:50;1.85;;;0.50;;
36715;SDS011;22699;51.034;3.730;2022-09-20T12:31:57;1.98;;;0.50;;
36715;SDS011;22699;51.034;3.730;2022-09-20T12:34:47;2.33;;;0.70;;
36715;SDS011;22699;51.034;3.730;2022-09-20T12:39:52;17.02;;;1.75;;
36715;SDS011;22699;51.034;3.730;2022-09-20T12:42:35;4.57;;;0.90;;
36715;SDS011;22699;51.034;3.730;2022-09-20T12:45:14;5.65;;;1.30;;
36715;SDS011;22699;51.034;3.730;2022-09-20T12:47:50;1.85;;;1.27;;
36715;SDS011;22699;51.034;3.730;2022-09-20T12:50:17;2.80;;;1.00;;
36715;SDS011;22699;51.034;3.730;2022-09-20T12:53:12;4.55;;;1.67;;
36715;SDS011;22699;51.034;3.730;2022-09-20T12:55:42;2.05;;;0.90;;
36715;SDS011;22699;51.034;3.730;2022-09-20T12:58:25;3.90;;;1.25;;
36715;SDS011;22699;51.034;3.730;2022-09-20T13:16:45;2.25;;;0.50;;
36715;SDS011;22699;51.034;3.730;2022-09-20T13:19:18;2.55;;;0.50;;
36715;SDS011;22699;51.034;3.730;2022-09-20T13:21:57;8.60;;;0.60;;
36715;SDS011;22699;51.034;3.730;2022-09-20T13:24:51;3.70;;;0.70;;
36715;SDS011;22699;51.034;3.730;2022-09-20T13:27:34;5.10;;;0.88;;
36715;SDS011;22699;51.034;3.730;2022-09-20T13:30:15;4.35;;;1.75;;
36715;SDS011;22699;51.034;3.730;2022-09-20T13:32:44;6.82;;;1.70;;
36715;SDS011;22699;51.034;3.730;2022-09-20T13:35:19;5.38;;;1.48;;
36715;SDS011;22699;51.034;3.730;2022-09-20T13:37:56;3.60;;;1.10;;
36715;SDS011;22699;51.034;3.730;2022-09-20T13:40:25;4.65;;;1.48;;
36715;SDS011;22699;51.034;3.730;2022-09-20T13:42:59;2.72;;;0.70;;
36715;SDS011;22699;51.034;3.730;2022-09-20T13:45:27;5.23;;;0.97;;
36715;SDS011;22699;51.034;3.730;2022-09-20T13:47:54;5.90;;;1.38;;
36715;SDS011;22699;51.034;3.730;2022-09-20T13:50:33;1.65;;;0.65;;
36715;SDS011;22699;51.034;3.730;2022-09-20T13:53:01;3.50;;;1.00;;
36715;SDS011;22699;51.034;3.730;2022-09-20T13:55:38;2.55;;;0.90;;
36715;SDS011;22699;51.034;3.730;2022-09-20T13:58:06;4.47;;;1.10;;
36715;SDS011;22699;51.034;3.730;2022-09-20T14:00:59;1.38;;;0.50;;
36715;SDS011;22699;51.034;3.730;2022-09-20T14:03:36;7.25;;;1.00;;
36715;SDS011;22699;51.034;3.730;2022-09-20T14:06:05;2.88;;;1.20;;
36715;SDS011;22699;51.034;3.730;2022-09-20T14:08:42;2.92;;;0.80;;
36715;SDS011;22699;51.034;3.730;2022-09-20T14:11:15;7.40;;;1.90;;
36715;SDS011;22699;51.034;3.730;2022-09-20T14:13:44;3.08;;;0.90;;
36715;SDS011;22699;51.034;3.730;2022-09-20T14:16:15;3.67;;;1.27;;
36715;SDS011;22699;51.034;3.730;2022-09-20T14:21:49;3.42;;;1.17;;
36715;SDS011;22699;51.034;3.730;2022-09-20T14:25:02;3.40;;;1.70;;
36715;SDS011;22699;51.034;3.730;2022-09-20T14:27:40;5.32;;;0.80;;
36715;SDS011;22699;51.034;3.730;2022-09-20T14:32:57;4.35;;;2.70;;
36715;SDS011;22699;51.034;3.730;2022-09-20T14:35:23;8.25;;;2.25;;
36715;SDS011;22699;51.034;3.730;2022-09-20T14:38:44;1.75;;;0.68;;
36715;SDS011;22699;51.034;3.730;2022-09-20T14:41:11;3.25;;;0.80;;
36715;SDS011;22699;51.034;3.730;2022-09-20T14:44:00;3.35;;;0.90;;
36715;SDS011;22699;51.034;3.730;2022-09-20T14:46:40;2.50;;;0.60;;
36715;SDS011;22699;51.034;3.730;2022-09-20T14:54:59;4.07;;;0.68;;
36715;SDS011;22699;51.034;3.730;2022-09-20T14:57:38;3.13;;;1.13;;
36715;SDS011;22699;51.034;3.730;2022-09-20T15:00:12;3.83;;;0.70;;
36715;SDS011;22699;51.034;3.730;2022-09-20T15:02:43;1.83;;;0.65;;
36715;SDS011;22699;51.034;3.730;2022-09-20T15:05:24;7.47;;;1.15;;
36715;SDS011;22699;51.034;3.730;2022-09-20T15:08:11;3.40;;;0.80;;
36715;SDS011;22699;51.034;3.730;2022-09-20T15:10:41;3.05;;;1.00;;
36715;SDS011;22699;51.034;3.730;2022-09-20T15:13:15;3.60;;;0.75;;
36715;SDS011;22699;51.034;3.730;2022-09-20T15:15:42;3.50;;;0.55;;
36715;SDS011;22699;51.034;3.730;2022-09-20T15:18:21;4.40;;;0.70;;
36715;SDS011;22699;51.034;3.730;2022-09-20T15:20:50;3.63;;;0.85;;
36715;SDS011;22699;51.034;3.730;2022-09-20T15:23:18;3.30;;;0.60;;
36715;SDS011;22699;51.034;3.730;2022-09-20T15:28:17;4.80;;;0.63;;
36715;SDS011;22699;51.034;3.730;2022-09-20T15:30:44;3.58;;;0.70;;
36715;SDS011;22699;51.034;3.730;2022-09-20T15:33:14;4.13;;;1.25;;
36715;SDS011;22699;51.034;3.730;2022-09-20T15:35:42;1.95;;;0.47;;
36715;SDS011;22699;51.034;3.730;2022-09-20T15:38:12;4.25;;;0.47;;
36715;SDS011;22699;51.034;3.730;2022-09-20T15:40:45;2.60;;;0.60;;
36715;SDS011;22699;51.034;3.730;2022-09-20T15:43:28;1.60;;;0.60;;
36715;SDS011;22699;51.034;3.730;2022-09-20T15:48:53;2.30;;;0.68;;
36715;SDS011;22699;51.034;3.730;2022-09-20T15:51:19;3.42;;;0.60;;
36715;SDS011;22699;51.034;3.730;2022-09-20T15:53:57;3.55;;;0.47;;
36715;SDS011;22699;51.034;3.730;2022-09-20T15:56:32;2.22;;;0.52;;
36715;SDS011;22699;51.034;3.730;2022-09-20T15:59:01;4.93;;;0.90;;
36715;SDS011;22699;51.034;3.730;2022-09-20T16:01:36;4.65;;;1.20;;
36715;SDS011;22699;51.034;3.730;2022-09-20T16:04:18;4.25;;;1.17;;
36715;SDS011;22699;51.034;3.730;2022-09-20T16:06:46;3.35;;;1.38;;
36715;SDS011;22699;51.034;3.730;2022-09-20T16:09:14;2.63;;;1.33;;
36715;SDS011;22699;51.034;3.730;2022-09-20T16:11:40;4.13;;;1.27;;
36715;SDS011;22699;51.034;3.730;2022-09-20T16:16:45;2.65;;;1.20;;
36715;SDS011;22699;51.034;3.730;2022-09-20T16:19:10;4.95;;;1.13;;
36715;SDS011;22699;51.034;3.730;2022-09-20T16:21:53;3.90;;;1.00;;
36715;SDS011;22699;51.034;3.730;2022-09-20T16:24:32;4.53;;;1.33;;
36715;SDS011;22699;51.034;3.730;2022-09-20T16:29:30;3.78;;;1.40;;
36715;SDS011;22699;51.034;3.730;2022-09-20T16:32:02;6.53;;;1.90;;
36715;SDS011;22699;51.034;3.730;2022-09-20T16:34:32;7.47;;;2.00;;
36715;SDS011;22699;51.034;3.730;2022-09-20T16:37:10;4.13;;;1.63;;
36715;SDS011;22699;51.034;3.730;2022-09-20T16:39:57;4.22;;;1.30;;
36715;SDS011;22699;51.034;3.730;2022-09-20T16:42:24;3.92;;;1.30;;
36715;SDS011;22699;51.034;3.730;2022-09-20T16:45:09;5.18;;;1.30;;
36715;SDS011;22699;51.034;3.730;2022-09-20T16:47:41;4.25;;;1.80;;
36715;SDS011;22699;51.034;3.730;2022-09-20T16:50:08;3.63;;;1.33;;
36715;SDS011;22699;51.034;3.730;2022-09-20T16:52:36;8.33;;;2.00;;
36715;SDS011;22699;51.034;3.730;2022-09-20T16:55:19;4.40;;;1.35;;
36715;SDS011;22699;51.034;3.730;2022-09-20T16:58:11;4.60;;;1.58;;
36715;SDS011;22699;51.034;3.730;2022-09-20T17:00:36;5.53;;;1.55;;
36715;SDS011;22699;51.034;3.730;2022-09-20T17:03:02;3.35;;;1.30;;
36715;SDS011;22699;51.034;3.730;2022-09-20T17:06:04;4.05;;;1.40;;
36715;SDS011;22699;51.034;3.730;2022-09-20T17:08:40;4.47;;;1.90;;
36715;SDS011;22699;51.034;3.730;2022-09-20T17:11:14;5.28;;;1.77;;
36715;SDS011;22699;51.034;3.730;2022-09-20T17:14:00;3.20;;;1.40;;
36715;SDS011;22699;51.034;3.730;2022-09-20T17:16:28;6.70;;;1.70;;
36715;SDS011;22699;51.034;3.730;2022-09-20T17:19:02;5.22;;;1.55;;
36715;SDS011;22699;51.034;3.730;2022-09-20T17:21:33;4.32;;;1.42;;
36715;SDS011;22699;51.034;3.730;2022-09-20T17:24:00;5.55;;;1.50;;
36715;SDS011;22699;51.034;3.730;2022-09-20T17:26:32;3.90;;;1.35;;
36715;SDS011;22699;51.034;3.730;2022-09-20T17:29:01;3.90;;;1.30;;
36715;SDS011;22699;51.034;3.730;2022-09-20T17:31:30;3.88;;;1.70;;
36715;SDS011;22699;51.034;3.730;2022-09-20T17:34:00;7.47;;;2.38;;
36715;SDS011;22699;51.034;3.730;2022-09-20T17:36:33;4.13;;;1.80;;
36715;SDS011;22699;51.034;3.730;2022-09-20T17:39:03;7.88;;;3.70;;
36715;SDS011;22699;51.034;3.730;2022-09-20T17:41:30;4.57;;;1.98;;
36715;SDS011;22699;51.034;3.730;2022-09-20T17:43:58;8.57;;;2.28;;
36715;SDS011;22699;51.034;3.730;2022-09-20T17:46:29;3.63;;;1.65;;
36715;SDS011;22699;51.034;3.730;2022-09-20T17:48:57;6.72;;;1.50;;
36715;SDS011;22699;51.034;3.730;2022-09-20T17:51:26;3.72;;;1.60;;
36715;SDS011;22699;51.034;3.730;2022-09-20T17:53:58;3.63;;;1.60;;
36715;SDS011;22699;51.034;3.730;2022-09-20T17:56:25;5.25;;;1.80;;
36715;SDS011;22699;51.034;3.730;2022-09-20T17:59:01;4.35;;;1.45;;
36715;SDS011;22699;51.034;3.730;2022-09-20T18:01:29;3.13;;;1.10;;
36715;SDS011;22699;51.034;3.730;2022-09-20T18:03:57;3.80;;;1.85;;
36715;SDS011;22699;51.034;3.730;2022-09-20T18:06:25;5.03;;;1.90;;
36715;SDS011;22699;51.034;3.730;2022-09-20T18:08:56;4.07;;;1.92;;
36715;SDS011;22699;51.034;3.730;2022-09-20T18:11:26;3.78;;;1.67;;
36715;SDS011;22699;51.034;3.730;2022-09-20T18:13:57;4.18;;;1.65;;
36715;SDS011;22699;51.034;3.730;2022-09-20T18:16:25;3.97;;;1.98;;
36715;SDS011;22699;51.034;3.730;2022-09-20T18:18:51;6.82;;;1.65;;
36715;SDS011;22699;51.034;3.730;2022-09-20T18:21:17;4.88;;;1.70;;
36715;SDS011;22699;51.034;3.730;2022-09-20T18:23:45;8.57;;;2.00;;
36715;SDS011;22699;51.034;3.730;2022-09-20T18:26:15;6.70;;;2.45;;
36715;SDS011;22699;51.034;3.730;2022-09-20T18:29:04;6.88;;;3.40;;
36715;SDS011;22699;51.034;3.730;2022-09-20T18:31:40;6.30;;;2.45;;
36715;SDS011;22699;51.034;3.730;2022-09-20T18:34:18;6.53;;;2.72;;
36715;SDS011;22699;51.034;3.730;2022-09-20T18:36:51;7.38;;;2.05;;
36715;SDS011;22699;51.034;3.730;2022-09-20T18:39:20;9.50;;;2.22;;
36715;SDS011;22699;51.034;3.730;2022-09-20T18:41:55;8.55;;;2.42;;
36715;SDS011;22699;51.034;3.730;2022-09-20T18:44:24;3.42;;;2.00;;
36715;SDS011;22699;51.034;3.730;2022-09-20T18:46:52;4.82;;;1.98;;
36715;SDS011;22699;51.034;3.730;2022-09-20T18:49:19;3.40;;;1.98;;
36715;SDS011;22699;51.034;3.730;2022-09-20T18:51:46;3.53;;;2.00;;
36715;SDS011;22699;51.034;3.730;2022-09-20T18:54:12;7.32;;;3.03;;
36715;SDS011;22699;51.034;3.730;2022-09-20T18:59:14;4.88;;;2.95;;
36715;SDS011;22699;51.034;3.730;2022-09-20T19:01:46;6.53;;;3.10;;
36715;SDS011;22699;51.034;3.730;2022-09-20T19:21:13;5.95;;;3.33;;
36715;SDS011;22699;51.034;3.730;2022-09-20T19:26:29;7.40;;;3.22;;
36715;SDS011;22699;51.034;3.730;2022-09-20T19:29:13;7.22;;;3.35;;
36715;SDS011;22699;51.034;3.730;2022-09-20T19:31:50;9.65;;;3.47;;
36715;SDS011;22699;51.034;3.730;2022-09-20T19:34:27;10.20;;;3.20;;
36715;SDS011;22699;51.034;3.730;2022-09-20T19:37:07;7.82;;;3.60;;
36715;SDS011;22699;51.034;3.730;2022-09-20T19:43:01;6.53;;;2.70;;
36715;SDS011;22699;51.034;3.730;2022-09-20T19:45:52;6.53;;;2.60;;
36715;SDS011;22699;51.034;3.730;2022-09-20T19:48:44;6.57;;;2.90;;
36715;SDS011;22699;51.034;3.730;2022-09-20T19:51:20;9.73;;;4.00;;
36715;SDS011;22699;51.034;3.730;2022-09-20T19:53:48;7.05;;;3.33;;
36715;SDS011;22699;51.034;3.730;2022-09-20T19:59:05;11.02;;;4.57;;
36715;SDS011;22699;51.034;3.730;2022-09-20T20:01:33;6.10;;;3.97;;
36715;SDS011;22699;51.034;3.730;2022-09-20T20:03:59;6.13;;;3.63;;
36715;SDS011;22699;51.034;3.730;2022-09-20T20:09:24;6.35;;;3.55;;
36715;SDS011;22699;51.034;3.730;2022-09-20T20:14:56;8.40;;;5.25;;
36715;SDS011;22699;51.034;3.730;2022-09-20T20:23:32;10.43;;;5.65;;
36715;SDS011;22699;51.034;3.730;2022-09-20T20:26:42;9.85;;;5.80;;
36715;SDS011;22699;51.034;3.730;2022-09-20T20:29:08;11.40;;;5.90;;
36715;SDS011;22699;51.034;3.730;2022-09-20T20:31:35;9.15;;;5.50;;
36715;SDS011;22699;51.034;3.730;2022-09-20T20:34:01;10.73;;;5.90;;
36715;SDS011;22699;51.034;3.730;2022-09-20T20:36:27;12.30;;;8.30;;
36715;SDS011;22699;51.034;3.730;2022-09-20T20:38:53;16.58;;;8.93;;
36715;SDS011;22699;51.034;3.730;2022-09-20T20:41:19;15.73;;;9.00;;
36715;SDS011;22699;51.034;3.730;2022-09-20T20:43:46;13.93;;;10.45;;
36715;SDS011;22699;51.034;3.730;2022-09-20T20:46:20;22.80;;;12.13;;
36715;SDS011;22699;51.034;3.730;2022-09-20T20:48:46;19.40;;;9.98;;
36715;SDS011;22699;51.034;3.730;2022-09-20T20:51:18;19.98;;;10.40;;
36715;SDS011;22699;51.034;3.730;2022-09-20T20:53:48;10.15;;;7.13;;
36715;SDS011;22699;51.034;3.730;2022-09-20T20:58:50;12.10;;;6.93;;
36715;SDS011;22699;51.034;3.730;2022-09-20T21:03:50;14.82;;;7.75;;
36715;SDS011;22699;51.034;3.730;2022-09-20T21:08:44;14.88;;;7.78;;
36715;SDS011;22699;51.034;3.730;2022-09-20T21:11:12;14.10;;;7.78;;
36715;SDS011;22699;51.034;3.730;2022-09-20T21:13:40;11.63;;;7.50;;
36715;SDS011;22699;51.034;3.730;2022-09-20T21:16:13;9.55;;;7.65;;
36715;SDS011;22699;51.034;3.730;2022-09-20T21:18:41;10.93;;;6.82;;
36715;SDS011;22699;51.034;3.730;2022-09-20T21:21:18;12.23;;;6.60;;
36715;SDS011;22699;51.034;3.730;2022-09-20T21:24:06;9.90;;;6.63;;
36715;SDS011;22699;51.034;3.730;2022-09-20T21:26:33;9.50;;;7.38;;
36715;SDS011;22699;51.034;3.730;2022-09-20T21:29:05;8.90;;;7.20;;
36715;SDS011;22699;51.034;3.730;2022-09-20T21:31:33;11.20;;;6.88;;
36715;SDS011;22699;51.034;3.730;2022-09-20T21:34:00;11.25;;;6.82;;
36715;SDS011;22699;51.034;3.730;2022-09-20T21:36:28;13.90;;;7.10;;
36715;SDS011;22699;51.034;3.730;2022-09-20T21:38:54;9.48;;;7.22;;
36715;SDS011;22699;51.034;3.730;2022-09-20T21:41:21;8.23;;;6.25;;
36715;SDS011;22699;51.034;3.730;2022-09-20T21:43:52;9.60;;;5.65;;
36715;SDS011;22699;51.034;3.730;2022-09-20T21:48:46;11.77;;;7.68;;
36715;SDS011;22699;51.034;3.730;2022-09-20T21:51:13;10.45;;;7.28;;
36715;SDS011;22699;51.034;3.730;2022-09-20T21:53:41;13.50;;;8.10;;
36715;SDS011;22699;51.034;3.730;2022-09-20T21:56:07;12.95;;;7.05;;
36715;SDS011;22699;51.034;3.730;2022-09-20T21:58:35;13.10;;;6.78;;
36715;SDS011;22699;51.034;3.730;2022-09-20T22:01:08;11.20;;;7.32;;
36715;SDS011;22699;51.034;3.730;2022-09-20T22:03:40;11.75;;;6.80;;
36715;SDS011;22699;51.034;3.730;2022-09-20T22:06:08;9.07;;;6.57;;
36715;SDS011;22699;51.034;3.730;2022-09-20T22:09:01;9.68;;;6.50;;
36715;SDS011;22699;51.034;3.730;2022-09-20T22:11:29;12.75;;;7.25;;
36715;SDS011;22699;51.034;3.730;2022-09-20T22:13:56;13.00;;;7.78;;
36715;SDS011;22699;51.034;3.730;2022-09-20T22:16:24;9.50;;;7.10;;
36715;SDS011;22699;51.034;3.730;2022-09-20T22:18:52;13.32;;;7.35;;
36715;SDS011;22699;51.034;3.730;2022-09-20T22:21:19;13.32;;;6.55;;
36715;SDS011;22699;51.034;3.730;2022-09-20T22:24:11;10.85;;;6.88;;
36715;SDS011;22699;51.034;3.730;2022-09-20T22:26:40;9.80;;;6.70;;
36715;SDS011;22699;51.034;3.730;2022-09-20T22:29:07;11.95;;;6.78;;
36715;SDS011;22699;51.034;3.730;2022-09-20T22:31:34;8.32;;;6.10;;
36715;SDS011;22699;51.034;3.730;2022-09-20T22:34:05;10.52;;;5.82;;
36715;SDS011;22699;51.034;3.730;2022-09-20T22:36:34;9.80;;;5.65;;
36715;SDS011;22699;51.034;3.730;2022-09-20T22:39:17;11.15;;;5.75;;
36715;SDS011;22699;51.034;3.730;2022-09-20T22:41:45;13.52;;;7.25;;
36715;SDS011;22699;51.034;3.730;2022-09-20T22:44:14;12.90;;;6.90;;
36715;SDS011;22699;51.034;3.730;2022-09-20T22:46:39;11.60;;;6.40;;
36715;SDS011;22699;51.034;3.730;2022-09-20T22:49:05;7.85;;;5.60;;
36715;SDS011;22699;51.034;3.730;2022-09-20T22:51:36;11.18;;;6.15;;
36715;SDS011;22699;51.034;3.730;2022-09-20T22:54:05;7.85;;;5.40;;
36715;SDS011;22699;51.034;3.730;2022-09-20T22:56:34;15.15;;;6.35;;